createdAt,value
2023-02-16T00:00:37.806Z,87.77
2023-02-16T00:05:39.347Z,86.56
2023-02-16T00:10:41.345Z,86.59
2023-02-16T00:15:43.150Z,86.45
2023-02-16T00:20:45.213Z,86.47
2023-02-16T00:25:46.622Z,86.08
2023-02-16T00:30:50.073Z,86.63
2023-02-16T00:35:51.502Z,87.33
2023-02-16T00:40:52.830Z,87.59
2023-02-16T00:45:54.839Z,87.23
2023-02-16T00:50:56.356Z,86.21
2023-02-16T00:55:57.737Z,86.12
2023-02-16T01:01:06.602Z,87.53
2023-02-16T01:06:27.197Z,87.69
2023-02-16T01:11:29.423Z,87.79
2023-02-16T01:16:38.048Z,87.59
2023-02-16T01:21:39.606Z,87.46
2023-02-16T01:26:45.821Z,88.34
2023-02-16T01:31:47.707Z,88.57
2023-02-16T01:36:49.317Z,88.75
2023-02-16T01:42:05.831Z,88.76
2023-02-16T01:47:18.193Z,88.39
2023-02-16T01:52:31.157Z,89.16
2023-02-16T01:57:41.581Z,89.14
2023-02-16T02:02:49.276Z,88.65
2023-02-16T02:08:00.646Z,88.18
2023-02-16T02:13:18.436Z,87.98
2023-02-16T02:18:19.813Z,88.21
2023-02-16T02:23:33.719Z,88.14
2023-02-16T02:29:05.097Z,88.54
2023-02-16T02:34:40.268Z,89.35
2023-02-16T02:40:16.971Z,89.66
2023-02-16T02:45:32.576Z,90.53
2023-02-16T02:51:29.792Z,90.54
2023-02-16T02:56:50.416Z,89.89
2023-02-16T03:01:57.195Z,91.41
2023-02-16T03:07:01.133Z,91.42
2023-02-16T03:12:43.903Z,90.98
2023-02-16T03:18:04.711Z,91.14
2023-02-16T03:23:26.555Z,90.86
2023-02-16T03:28:50.217Z,91.05
2023-02-16T03:33:54.581Z,90.84
2023-02-16T03:38:57.269Z,91.51
2023-02-16T03:43:58.714Z,90.51
2023-02-16T03:49:00.072Z,89.91
2023-02-16T03:54:01.438Z,89.76
2023-02-16T03:59:03.393Z,90.22
2023-02-16T04:04:05.100Z,90.63
2023-02-16T04:09:06.568Z,91.09
2023-02-16T04:14:07.929Z,91.01
2023-02-16T04:19:09.424Z,92.81
2023-02-16T04:24:10.762Z,91.35
2023-02-16T04:29:12.125Z,90.43
2023-02-16T04:34:13.829Z,90.51
2023-02-16T04:39:15.528Z,90.73
2023-02-16T04:44:16.960Z,90.75
2023-02-16T04:49:18.852Z,91.07
2023-02-16T04:54:20.263Z,90.51
2023-02-16T04:59:22.792Z,90.44
2023-02-16T05:04:24.795Z,90.42
2023-02-16T05:09:26.294Z,90.80
2023-02-16T05:14:42.961Z,91.15
2023-02-16T05:19:46.670Z,90.41
2023-02-16T05:24:48.968Z,90.61
2023-02-16T05:29:50.776Z,90.59
2023-02-16T05:34:52.124Z,91.53
2023-02-16T05:39:53.425Z,90.64
2023-02-16T05:44:54.847Z,91.54
2023-02-16T05:49:56.225Z,92.04
2023-02-16T05:54:57.544Z,92.52
2023-02-16T05:59:58.928Z,91.89
2023-02-16T06:05:00.289Z,91.86
2023-02-16T06:10:01.678Z,92.50
2023-02-16T06:15:04.013Z,92.84
2023-02-16T06:20:06.083Z,91.80
2023-02-16T06:25:07.583Z,91.02
2023-02-16T06:30:09.255Z,91.43
2023-02-16T06:35:10.688Z,91.29
2023-02-16T06:40:16.227Z,91.05
2023-02-16T06:45:17.876Z,91.48
2023-02-16T06:50:19.369Z,91.29
2023-02-16T06:55:20.754Z,91.39
2023-02-16T07:00:22.434Z,92.70
2023-02-16T07:05:23.935Z,92.08
2023-02-16T07:10:25.246Z,92.37
2023-02-16T07:15:26.663Z,92.27
2023-02-16T07:20:28.200Z,92.37
2023-02-16T07:25:29.791Z,91.73
2023-02-16T07:30:31.497Z,91.61
2023-02-16T07:35:33.985Z,91.48
2023-02-16T07:40:36.367Z,91.12
2023-02-16T07:45:37.828Z,90.12
2023-02-16T07:50:39.202Z,90.01
2023-02-16T07:55:44.212Z,90.43
2023-02-16T08:00:45.534Z,89.65
2023-02-16T08:05:46.846Z,89.91
2023-02-16T08:10:48.240Z,89.54
2023-02-16T08:15:50.179Z,88.56
2023-02-16T08:21:03.750Z,88.20
2023-02-16T08:26:11.314Z,88.47
2023-02-16T08:31:18.808Z,87.13
2023-02-16T08:36:26.492Z,85.97
2023-02-16T08:41:36.737Z,84.60
2023-02-16T08:46:40.533Z,84.67
2023-02-16T08:51:47.424Z,84.89
2023-02-16T08:56:49.568Z,86.14
2023-02-16T09:01:52.347Z,85.67
2023-02-16T09:06:53.839Z,84.58
2023-02-16T09:11:55.488Z,84.70
2023-02-16T09:16:58.183Z,86.37
2023-02-16T09:21:59.628Z,84.76
2023-02-16T09:27:01.595Z,83.43
2023-02-16T09:32:03.347Z,82.54
2023-02-16T09:37:04.751Z,82.01
2023-02-16T09:42:39.806Z,82.28
2023-02-16T09:47:47.607Z,80.91
2023-02-16T09:53:00.591Z,81.16
2023-02-16T09:58:14.683Z,80.68
2023-02-16T10:03:38.041Z,81.19
2023-02-16T10:08:43.667Z,81.70
2023-02-16T10:13:54.087Z,80.52
2023-02-16T10:18:57.122Z,79.78
2023-02-16T10:24:02.762Z,78.73
2023-02-16T10:29:19.013Z,79.20
2023-02-16T10:34:38.830Z,78.20
2023-02-16T10:39:53.157Z,79.28
2023-02-16T10:45:17.945Z,77.65
2023-02-16T10:50:30.209Z,78.06
2023-02-16T10:55:31.552Z,73.69
2023-02-16T11:00:58.525Z,69.54
2023-02-16T11:06:16.413Z,65.85
2023-02-16T11:11:19.409Z,66.80
2023-02-16T11:16:24.381Z,67.30
2023-02-16T11:21:50.449Z,66.79
2023-02-16T11:27:19.492Z,69.45
2023-02-16T11:32:22.212Z,71.06
2023-02-16T11:37:31.829Z,70.29
2023-02-16T11:42:40.323Z,69.18
2023-02-16T11:47:43.064Z,64.06
2023-02-16T11:52:47.029Z,60.05
2023-02-16T11:57:49.026Z,61.81
2023-02-16T12:03:18.999Z,62.42
2023-02-16T12:08:27.738Z,58.25
2023-02-16T12:13:36.482Z,46.32
2023-02-16T12:19:11.167Z,40.06
2023-02-16T12:24:24.327Z,44.01
2023-02-16T12:30:03.709Z,47.50
2023-02-16T12:35:19.098Z,49.75
2023-02-16T12:40:51.940Z,47.61
2023-02-16T12:45:57.730Z,44.38
2023-02-16T12:51:03.270Z,42.54
2023-02-16T12:56:12.478Z,44.86
2023-02-16T13:01:20.398Z,49.10
2023-02-16T13:07:06.239Z,54.18
2023-02-16T13:12:43.114Z,57.25
2023-02-16T13:17:50.497Z,59.69
2023-02-16T13:23:24.070Z,61.10
2023-02-16T13:28:31.546Z,59.89
2023-02-16T13:33:51.493Z,58.89
2023-02-16T13:39:20.741Z,60.15
2023-02-16T13:44:36.374Z,62.48
2023-02-16T13:49:43.138Z,64.70
2023-02-16T13:54:50.041Z,65.19
2023-02-16T14:00:00.536Z,66.10
2023-02-16T14:05:09.886Z,67.31
2023-02-16T14:10:14.590Z,66.92
2023-02-16T14:15:20.684Z,67.18
2023-02-16T14:20:21.962Z,67.02
2023-02-16T14:25:23.358Z,67.47
2023-02-16T14:30:51.926Z,68.42
2023-02-16T14:35:59.111Z,69.29
2023-02-16T14:41:03.403Z,70.47
2023-02-16T14:46:28.814Z,70.15
2023-02-16T14:51:50.752Z,71.03
2023-02-16T14:56:56.935Z,70.40
2023-02-16T15:01:59.051Z,69.47
2023-02-16T15:07:04.748Z,69.89
2023-02-16T15:12:23.771Z,69.74
2023-02-16T15:17:30.140Z,70.38
2023-02-16T15:22:31.854Z,69.97
2023-02-16T15:27:33.893Z,70.32
2023-02-16T15:32:35.765Z,70.11
2023-02-16T15:37:39.997Z,70.74
2023-02-16T15:42:44.632Z,70.43
2023-02-16T15:47:46.932Z,71.56
2023-02-16T15:52:48.506Z,72.77
2023-02-16T15:57:51.166Z,73.36
2023-02-16T16:02:55.897Z,73.64
2023-02-16T16:07:59.347Z,73.82
2023-02-16T16:13:08.831Z,74.10
2023-02-16T16:18:44.611Z,73.95
2023-02-16T16:23:56.654Z,74.50
2023-02-16T16:28:58.105Z,74.33
2023-02-16T16:34:02.372Z,75.09
2023-02-16T16:39:17.209Z,75.50
2023-02-16T16:44:34.666Z,76.42
2023-02-16T16:49:36.111Z,76.03
2023-02-16T16:54:39.496Z,76.55
2023-02-16T16:59:40.864Z,76.27
2023-02-16T17:04:42.241Z,76.31
2023-02-16T17:09:43.694Z,76.16
2023-02-16T17:14:44.968Z,76.03
2023-02-16T17:19:46.392Z,76.40
2023-02-16T17:24:47.837Z,76.24
2023-02-16T17:29:49.173Z,76.63
2023-02-16T17:34:50.487Z,76.64
2023-02-16T17:39:51.830Z,77.13
2023-02-16T17:44:53.150Z,77.16
2023-02-16T17:49:54.545Z,77.38
2023-02-16T17:54:55.839Z,77.25
2023-02-16T17:59:57.677Z,77.45
2023-02-16T18:04:59.081Z,77.24
2023-02-16T18:10:00.997Z,77.20
2023-02-16T18:15:02.337Z,77.32
2023-02-16T18:20:05.013Z,77.44
2023-02-16T18:25:06.580Z,77.28
2023-02-16T18:30:10.156Z,77.43
2023-02-16T18:35:13.995Z,77.67
2023-02-16T18:40:19.755Z,78.11
2023-02-16T18:45:21.214Z,78.14
2023-02-16T18:50:22.637Z,78.53
2023-02-16T18:55:24.451Z,78.49
2023-02-16T19:00:26.051Z,78.53
2023-02-16T19:05:27.663Z,78.25
2023-02-16T19:10:29.887Z,78.44
2023-02-16T19:15:33.105Z,78.65
2023-02-16T19:20:35.331Z,78.60
2023-02-16T19:25:36.738Z,78.78
2023-02-16T19:30:38.204Z,79.07
2023-02-16T19:35:39.605Z,79.34
2023-02-16T19:40:40.952Z,79.74
2023-02-16T19:45:42.938Z,79.58
2023-02-16T19:50:45.423Z,79.34
2023-02-16T19:55:48.306Z,79.22
2023-02-16T20:00:49.875Z,79.15
2023-02-16T20:05:51.286Z,79.33
2023-02-16T20:10:52.796Z,78.73
2023-02-16T20:15:54.168Z,78.94
2023-02-16T20:21:03.755Z,78.96
2023-02-16T20:26:08.172Z,79.16
2023-02-16T20:31:17.379Z,79.45
2023-02-16T20:36:19.966Z,79.19
2023-02-16T20:41:21.616Z,79.29
2023-02-16T20:46:23.829Z,79.64
2023-02-16T20:51:25.443Z,79.10
2023-02-16T20:56:28.160Z,79.27
2023-02-16T21:01:38.858Z,79.49
2023-02-16T21:06:40.291Z,79.98
2023-02-16T21:11:42.228Z,80.29
2023-02-16T21:16:43.617Z,81.05
2023-02-16T21:21:45.032Z,81.80
2023-02-16T21:26:46.403Z,82.24
2023-02-16T21:31:47.878Z,82.61
2023-02-16T21:36:49.469Z,82.38
2023-02-16T21:41:50.813Z,82.26
2023-02-16T21:46:52.169Z,82.40
2023-02-16T21:51:53.512Z,82.13
2023-02-16T21:56:54.894Z,81.67
2023-02-16T22:01:56.336Z,81.13
2023-02-16T22:06:57.685Z,80.93
2023-02-16T22:11:59.071Z,80.81
2023-02-16T22:17:04.469Z,80.48
2023-02-16T22:22:05.946Z,80.89
2023-02-16T22:27:07.331Z,80.36
2023-02-16T22:32:12.050Z,80.08
2023-02-16T22:37:13.494Z,79.99
2023-02-16T22:42:14.800Z,79.96
2023-02-16T22:47:16.252Z,79.80
2023-02-16T22:52:17.707Z,81.11
2023-02-16T22:57:19.104Z,81.10
2023-02-16T23:02:20.457Z,81.56
2023-02-16T23:07:21.775Z,81.81
2023-02-16T23:12:23.346Z,81.40
2023-02-16T23:17:24.758Z,81.28
2023-02-16T23:22:26.165Z,80.93
2023-02-16T23:27:27.644Z,80.93
2023-02-16T23:32:29.040Z,80.69
2023-02-16T23:37:31.423Z,80.58
2023-02-16T23:42:32.965Z,80.84
2023-02-16T23:47:34.326Z,80.94
2023-02-16T23:52:35.658Z,81.09
2023-02-16T23:57:37.062Z,80.78
